Time;durP1;ratioP1;P1;durP2;ratioP2;P2;SDS_P1;SDS_P2;PMS_P1;PMS_P2;Temp;Humidity;BMP_temperature;BMP_pressure;BME280_temperature;BME280_humidity;BME280_pressure;Samples;Min_cycle;Max_cycle;Signal;HPM_P1;HPM_P2
2021/04/10 00:01:59;;;;;;;3.53;1.30;;;19.60;32.80;;;;;;5076264;28;20025;-66
2021/04/10 00:04:25;;;;;;;2.72;1.30;;;19.60;32.90;;;;;;5075980;28;20392;-65
2021/04/10 00:06:51;;;;;;;4.78;1.50;;;19.60;32.80;;;;;;5076190;28;20025;-66
2021/04/10 00:09:16;;;;;;;3.20;1.20;;;19.60;32.80;;;;;;5076063;28;20024;-66
2021/04/10 00:11:42;;;;;;;3.15;1.40;;;19.60;32.90;;;;;;5076057;28;20430;-66
2021/04/10 00:14:11;;;;;;;2.92;1.20;;;19.60;32.80;;;;;;5076179;28;20481;-66
2021/04/10 00:16:37;;;;;;;3.25;1.30;;;19.60;32.90;;;;;;5074773;28;20021;-66
2021/04/10 00:19:03;;;;;;;3.55;1.38;;;19.60;32.90;;;;;;5075872;28;20427;-66
2021/04/10 00:21:29;;;;;;;2.40;1.23;;;19.60;32.90;;;;;;5075874;28;20041;-66
2021/04/10 00:23:54;;;;;;;2.63;1.17;;;19.60;32.90;;;;;;5075786;28;20062;-65
2021/04/10 00:26:20;;;;;;;2.85;1.33;;;19.60;32.90;;;;;;5076249;28;20024;-65
2021/04/10 00:28:45;;;;;;;3.10;1.27;;;19.60;32.90;;;;;;5074838;28;20024;-65
2021/04/10 00:31:11;;;;;;;2.30;1.30;;;19.60;32.90;;;;;;5076016;28;20024;-66
2021/04/10 00:33:38;;;;;;;3.78;1.20;;;19.60;32.90;;;;;;5076174;28;20122;-65
2021/04/10 00:36:05;;;;;;;2.65;1.13;;;19.60;33.00;;;;;;5075673;28;20088;-65
2021/04/10 00:38:31;;;;;;;3.92;1.25;;;19.60;32.90;;;;;;5075508;28;20384;-65
2021/04/10 00:40:58;;;;;;;2.65;1.27;;;19.60;33.00;;;;;;5075642;28;20541;-65
2021/04/10 00:43:24;;;;;;;2.10;1.17;;;19.60;33.00;;;;;;5074962;28;20365;-66
2021/04/10 00:45:49;;;;;;;2.75;1.35;;;19.60;32.90;;;;;;5079847;28;20020;-65
2021/04/10 00:48:15;;;;;;;3.67;1.17;;;19.60;32.90;;;;;;5075809;28;20033;-65
2021/04/10 00:50:41;;;;;;;3.05;1.08;;;19.60;33.00;;;;;;5075758;28;20017;-65
2021/04/10 00:53:06;;;;;;;3.88;1.52;;;19.60;33.00;;;;;;5074365;28;20032;-65
2021/04/10 00:55:34;;;;;;;2.20;1.25;;;19.60;33.10;;;;;;5075860;28;20357;-65
2021/04/10 00:57:59;;;;;;;4.82;1.60;;;19.50;33.00;;;;;;5075743;28;20032;-65
2021/04/10 01:00:25;;;;;;;2.70;1.45;;;19.60;33.10;;;;;;5076648;28;20032;-65
2021/04/10 01:02:51;;;;;;;3.60;1.50;;;19.50;33.00;;;;;;5075134;28;20017;-65
2021/04/10 01:05:16;;;;;;;3.28;1.40;;;19.50;33.00;;;;;;5075303;28;20024;-66
2021/04/10 01:07:42;;;;;;;3.17;1.50;;;19.50;33.10;;;;;;5075675;28;20043;-66
2021/04/10 01:10:08;;;;;;;2.67;1.10;;;19.60;33.10;;;;;;5078404;28;20023;-66
2021/04/10 01:13:00;;;;;;;2.55;1.13;;;19.50;33.10;;;;;;5075474;28;20107;-65
2021/04/10 01:15:34;;;;;;;3.67;1.40;;;19.50;33.10;;;;;;5074859;28;20040;-65
2021/04/10 01:18:06;;;;;;;3.63;1.33;;;19.60;33.10;;;;;;5074844;28;20020;-66
2021/04/10 01:20:42;;;;;;;3.05;1.40;;;19.60;33.10;;;;;;5074731;28;20040;-64
2021/04/10 01:23:35;;;;;;;3.78;1.65;;;19.50;33.20;;;;;;5074962;28;20033;-66
2021/04/10 01:26:00;;;;;;;3.75;1.50;;;19.50;33.20;;;;;;5074772;28;20035;-65
2021/04/10 01:28:34;;;;;;;3.47;1.58;;;19.50;33.20;;;;;;5074914;28;20021;-65
2021/04/10 01:31:01;;;;;;;4.25;1.80;;;19.50;33.20;;;;;;5074656;28;20376;-64
2021/04/10 01:33:30;;;;;;;3.20;1.67;;;19.50;33.20;;;;;;5074464;28;20024;-65
2021/04/10 01:35:59;;;;;;;3.33;1.42;;;19.50;33.30;;;;;;5074532;28;20467;-63
2021/04/10 01:38:28;;;;;;;3.17;1.58;;;19.50;33.30;;;;;;5074477;28;20025;-64
2021/04/10 01:40:57;;;;;;;3.22;1.52;;;19.50;33.30;;;;;;5074464;28;20035;-64
2021/04/10 01:43:23;;;;;;;4.43;1.67;;;19.50;33.20;;;;;;5074229;28;20041;-65
2021/04/10 01:45:50;;;;;;;4.78;1.85;;;19.50;33.20;;;;;;5074189;28;20031;-64
2021/04/10 01:48:17;;;;;;;3.60;1.70;;;19.50;33.30;;;;;;5074237;28;20111;-65
2021/04/10 01:50:43;;;;;;;3.38;1.50;;;19.50;33.30;;;;;;5074395;28;20031;-64
2021/04/10 01:53:10;;;;;;;4.05;1.80;;;19.50;33.30;;;;;;5074293;28;20052;-64
2021/04/10 01:55:38;;;;;;;3.78;1.73;;;19.50;33.30;;;;;;5074116;28;20086;-65
2021/04/10 01:58:04;;;;;;;4.45;1.80;;;19.50;33.30;;;;;;5074358;28;20024;-65
2021/04/10 02:00:32;;;;;;;3.70;1.70;;;19.50;33.30;;;;;;5073950;28;20024;-65
2021/04/10 02:02:58;;;;;;;4.80;1.92;;;19.50;33.30;;;;;;5073918;28;20039;-65
2021/04/10 02:05:26;;;;;;;5.28;2.00;;;19.50;33.40;;;;;;5074030;28;20028;-64
2021/04/10 02:07:53;;;;;;;4.97;1.80;;;19.50;33.30;;;;;;5073495;28;20387;-65
2021/04/10 02:10:23;;;;;;;4.65;1.88;;;19.50;33.40;;;;;;5074159;28;20107;-64
2021/04/10 02:12:51;;;;;;;3.95;1.75;;;19.50;33.40;;;;;;5073867;28;20052;-66
2021/04/10 02:15:17;;;;;;;4.13;1.83;;;19.50;33.40;;;;;;5073624;28;20124;-65
2021/04/10 02:17:43;;;;;;;5.63;2.08;;;19.50;33.50;;;;;;5073653;28;20059;-64
2021/04/10 02:20:11;;;;;;;7.53;2.40;;;19.50;33.40;;;;;;5073842;28;20055;-64
2021/04/10 02:22:38;;;;;;;4.85;1.95;;;19.50;33.50;;;;;;5073549;28;20393;-65
2021/04/10 02:25:06;;;;;;;5.13;2.30;;;19.50;33.40;;;;;;5073992;28;20517;-65
2021/04/10 02:27:32;;;;;;;6.05;1.90;;;19.50;33.40;;;;;;5073737;28;20377;-64
2021/04/10 02:29:59;;;;;;;5.88;2.35;;;19.50;33.50;;;;;;5073247;28;20024;-64
2021/04/10 02:32:37;;;;;;;4.50;1.98;;;19.50;33.40;;;;;;5072244;28;20111;-65
2021/04/10 02:35:12;;;;;;;4.57;2.00;;;19.50;33.50;;;;;;5073595;28;20051;-65
2021/04/10 02:37:39;;;;;;;4.60;2.22;;;19.50;33.60;;;;;;5073455;28;20043;-65
2021/04/10 02:40:07;;;;;;;4.20;2.13;;;19.50;33.50;;;;;;5073463;28;20118;-64
2021/04/10 02:42:34;;;;;;;4.97;2.00;;;19.50;33.50;;;;;;5073583;28;20074;-64
2021/04/10 02:45:04;;;;;;;4.03;1.90;;;19.50;33.50;;;;;;5073584;28;20047;-65
2021/04/10 02:47:32;;;;;;;4.47;2.28;;;19.50;33.60;;;;;;5073762;28;20051;-64
2021/04/10 02:50:01;;;;;;;3.47;1.70;;;19.50;33.60;;;;;;5073561;28;20036;-65
2021/04/10 02:52:34;;;;;;;4.88;1.95;;;19.50;33.60;;;;;;5073392;28;20021;-65
2021/04/10 02:55:03;;;;;;;5.13;1.90;;;19.50;33.60;;;;;;5073524;28;20040;-64
2021/04/10 02:57:29;;;;;;;5.05;2.22;;;19.50;33.60;;;;;;5073073;28;20103;-65
2021/04/10 02:59:58;;;;;;;4.55;1.67;;;19.50;33.70;;;;;;5073359;28;20035;-64
2021/04/10 03:02:24;;;;;;;3.80;1.80;;;19.50;33.60;;;;;;5073095;28;20048;-65
2021/04/10 03:04:51;;;;;;;5.75;2.35;;;19.50;33.60;;;;;;5072165;28;20051;-64
2021/04/10 03:07:19;;;;;;;4.78;1.98;;;19.50;33.70;;;;;;5076126;28;20103;-65
2021/04/10 03:09:46;;;;;;;5.10;2.30;;;19.50;33.70;;;;;;5077606;28;20032;-64
2021/04/10 03:12:17;;;;;;;4.30;2.22;;;19.50;33.70;;;;;;5077600;28;20025;-67
2021/04/10 03:14:44;;;;;;;5.10;1.83;;;19.50;33.70;;;;;;5077000;28;20126;-66
2021/04/10 03:17:17;;;;;;;4.03;2.00;;;19.50;33.70;;;;;;5077366;28;20051;-65
2021/04/10 03:19:44;;;;;;;5.20;2.30;;;19.50;33.80;;;;;;5077031;28;20032;-66
2021/04/10 03:22:11;;;;;;;5.03;1.85;;;19.50;33.80;;;;;;5076861;28;20044;-65
2021/04/10 03:24:37;;;;;;;4.30;2.03;;;19.50;33.80;;;;;;5076968;28;20035;-66
2021/04/10 03:27:03;;;;;;;4.57;2.20;;;19.50;33.80;;;;;;5077301;28;20028;-64
2021/04/10 03:29:29;;;;;;;5.00;1.83;;;19.50;33.90;;;;;;5076919;28;20391;-66
2021/04/10 03:31:56;;;;;;;4.20;1.75;;;19.50;33.80;;;;;;5076788;28;20100;-65
2021/04/10 03:34:22;;;;;;;5.47;1.73;;;19.50;33.90;;;;;;5077327;28;20124;-65
2021/04/10 03:36:48;;;;;;;4.10;1.85;;;19.50;33.90;;;;;;5083754;28;20027;-65
2021/04/10 03:39:14;;;;;;;5.25;1.98;;;19.50;33.90;;;;;;5086823;28;20024;-66
2021/04/10 03:41:41;;;;;;;4.95;2.22;;;19.50;33.90;;;;;;5087140;28;20040;-65
2021/04/10 03:44:07;;;;;;;4.18;2.00;;;19.50;33.90;;;;;;5077183;28;20028;-65
2021/04/10 03:46:35;;;;;;;4.65;1.85;;;19.40;33.90;;;;;;5076692;28;20166;-65
2021/04/10 03:49:03;;;;;;;4.50;1.95;;;19.50;34.00;;;;;;5076752;28;20021;-65
2021/04/10 03:51:28;;;;;;;6.03;2.15;;;19.40;33.90;;;;;;5076814;28;20021;-66
2021/04/10 03:53:54;;;;;;;3.00;1.63;;;19.40;33.90;;;;;;5076640;28;20402;-65
2021/04/10 03:56:19;;;;;;;3.42;1.73;;;19.50;34.00;;;;;;5076566;28;20032;-65
2021/04/10 03:58:46;;;;;;;4.45;1.90;;;19.40;34.00;;;;;;5076591;28;20024;-65
2021/04/10 04:01:12;;;;;;;4.18;1.90;;;19.40;34.00;;;;;;5076491;28;20033;-65
2021/04/10 04:03:38;;;;;;;3.63;1.80;;;19.40;34.00;;;;;;5076173;28;20107;-66
2021/04/10 04:06:03;;;;;;;4.90;2.00;;;19.40;34.10;;;;;;5076384;28;20028;-65
2021/04/10 04:08:29;;;;;;;3.35;1.58;;;19.50;34.00;;;;;;5076756;28;20032;-65
2021/04/10 04:10:54;;;;;;;4.20;1.88;;;19.40;34.00;;;;;;5076740;28;20021;-65
2021/04/10 04:13:20;;;;;;;4.90;2.03;;;19.40;34.00;;;;;;5076695;28;20388;-65
2021/04/10 04:15:45;;;;;;;4.72;2.03;;;19.40;34.10;;;;;;5076866;28;20464;-65
2021/04/10 04:18:11;;;;;;;4.20;1.83;;;19.50;34.00;;;;;;5076760;28;20483;-65
2021/04/10 04:20:36;;;;;;;3.53;1.75;;;19.50;34.00;;;;;;5086093;28;20025;-66
2021/04/10 04:23:02;;;;;;;4.45;1.75;;;19.50;34.00;;;;;;5086764;28;20028;-65
2021/04/10 04:25:28;;;;;;;5.60;1.98;;;19.50;33.90;;;;;;5076422;28;20534;-65
2021/04/10 04:27:53;;;;;;;4.05;1.60;;;19.50;33.90;;;;;;5076682;28;20059;-65
2021/04/10 04:30:20;;;;;;;4.05;2.03;;;19.50;33.90;;;;;;5076277;28;20119;-66
2021/04/10 04:32:45;;;;;;;4.05;1.73;;;19.60;33.90;;;;;;5079094;28;20139;-65
2021/04/10 04:35:11;;;;;;;3.05;1.45;;;19.60;33.90;;;;;;5082572;28;20071;-65
2021/04/10 04:37:37;;;;;;;3.55;1.60;;;19.60;33.90;;;;;;5076231;28;20035;-66
2021/04/10 04:40:03;;;;;;;4.30;1.95;;;19.60;33.90;;;;;;5075577;28;20039;-65
2021/04/10 04:42:29;;;;;;;4.88;1.67;;;19.60;33.90;;;;;;5075510;28;20021;-65
2021/04/10 04:44:54;;;;;;;3.90;1.52;;;19.60;33.90;;;;;;5075715;28;20082;-65
2021/04/10 04:47:20;;;;;;;2.83;1.63;;;19.70;33.90;;;;;;5076233;28;20070;-65
2021/04/10 04:49:45;;;;;;;3.70;1.55;;;19.70;33.90;;;;;;5075492;28;20029;-65
2021/04/10 04:52:11;;;;;;;3.88;1.70;;;19.70;33.90;;;;;;5075008;28;20024;-65
2021/04/10 04:54:36;;;;;;;4.20;1.95;;;19.70;33.90;;;;;;5075378;28;20110;-65
2021/04/10 04:57:02;;;;;;;4.82;1.70;;;19.70;33.90;;;;;;5075374;28;20070;-65
2021/04/10 04:59:27;;;;;;;4.35;1.77;;;19.70;33.90;;;;;;5074978;28;20081;-64
2021/04/10 05:01:53;;;;;;;5.25;1.58;;;19.70;34.00;;;;;;5075275;28;20016;-64
2021/04/10 05:04:18;;;;;;;4.60;1.75;;;19.70;33.90;;;;;;5075324;28;20090;-63
2021/04/10 05:06:44;;;;;;;4.18;1.85;;;19.80;33.90;;;;;;5075264;28;20027;-64
2021/04/10 05:09:10;;;;;;;4.30;1.70;;;19.80;34.00;;;;;;5074908;28;20087;-64
2021/04/10 05:11:35;;;;;;;4.60;1.92;;;19.80;34.00;;;;;;5074775;28;20028;-66
2021/04/10 05:14:01;;;;;;;3.83;1.52;;;19.80;34.00;;;;;;5075179;28;20036;-64
2021/04/10 05:16:27;;;;;;;4.15;1.50;;;19.80;34.00;;;;;;5075160;28;20017;-63
2021/04/10 05:18:53;;;;;;;3.70;1.55;;;19.80;34.00;;;;;;5074876;28;20130;-64
2021/04/10 05:21:18;;;;;;;4.43;1.50;;;19.80;34.00;;;;;;5074759;28;20050;-64
2021/04/10 05:23:44;;;;;;;4.15;1.50;;;19.80;34.00;;;;;;5075048;28;20391;-64
2021/04/10 05:26:10;;;;;;;3.72;1.60;;;19.80;34.10;;;;;;5075228;28;20031;-64
2021/04/10 05:28:35;;;;;;;3.55;1.65;;;19.80;34.10;;;;;;5076928;28;20035;-64
2021/04/10 05:31:03;;;;;;;3.35;1.30;;;19.80;34.00;;;;;;5075228;28;20058;-64
2021/04/10 05:33:33;;;;;;;3.80;1.50;;;19.80;34.00;;;;;;5074975;28;20028;-64
2021/04/10 05:35:59;;;;;;;4.97;1.80;;;19.80;34.00;;;;;;5075132;28;20376;-64
2021/04/10 05:38:25;;;;;;;3.42;1.50;;;19.80;34.20;;;;;;5074551;28;20027;-64
2021/04/10 05:40:52;;;;;;;4.03;1.52;;;19.80;34.10;;;;;;5074585;28;20561;-64
2021/04/10 05:43:18;;;;;;;3.60;1.55;;;19.90;34.10;;;;;;5074810;28;20027;-64
2021/04/10 05:45:44;;;;;;;3.88;1.45;;;19.80;34.10;;;;;;5074871;28;20035;-64
2021/04/10 05:48:09;;;;;;;2.85;1.45;;;19.80;34.20;;;;;;5077326;28;20024;-64
2021/04/10 05:50:35;;;;;;;3.85;1.50;;;19.80;34.20;;;;;;5076047;28;20476;-64
2021/04/10 05:53:00;;;;;;;2.90;1.20;;;19.80;34.10;;;;;;5075072;28;20051;-64
2021/04/10 05:55:26;;;;;;;3.97;1.77;;;19.80;34.20;;;;;;5074302;28;20384;-64
2021/04/10 05:57:51;;;;;;;4.68;1.77;;;19.80;34.10;;;;;;5074230;28;20020;-64
2021/04/10 06:00:18;;;;;;;3.55;1.50;;;19.90;34.10;;;;;;5074188;28;20484;-65
2021/04/10 06:02:43;;;;;;;3.05;1.30;;;19.90;34.20;;;;;;5074383;28;20020;-64
2021/04/10 06:05:10;;;;;;;3.95;1.60;;;19.90;34.20;;;;;;5074057;28;20034;-64
2021/04/10 06:07:35;;;;;;;2.83;1.30;;;19.80;34.20;;;;;;5074030;28;20361;-65
2021/04/10 06:10:01;;;;;;;5.82;1.48;;;19.90;34.20;;;;;;5073978;28;20077;-65
2021/04/10 06:12:26;;;;;;;3.83;1.70;;;19.90;34.20;;;;;;5073867;28;20028;-64
2021/04/10 06:14:52;;;;;;;3.88;1.50;;;19.90;34.20;;;;;;5073658;28;20048;-65
2021/04/10 06:17:18;;;;;;;4.15;1.42;;;19.90;34.20;;;;;;5073972;28;20457;-65
2021/04/10 06:19:43;;;;;;;5.65;1.35;;;19.90;34.20;;;;;;5073785;28;20035;-66
2021/04/10 06:22:09;;;;;;;2.85;1.25;;;19.90;34.20;;;;;;5073652;28;20045;-65
2021/04/10 06:24:34;;;;;;;4.55;1.52;;;19.90;34.10;;;;;;5072314;28;20025;-65
2021/04/10 06:27:00;;;;;;;4.72;1.73;;;19.90;34.20;;;;;;5074085;28;20265;-65
2021/04/10 06:29:26;;;;;;;3.78;1.80;;;19.90;34.20;;;;;;5073847;28;20407;-65
2021/04/10 06:31:51;;;;;;;4.22;1.85;;;19.90;34.20;;;;;;5073484;28;20052;-64
2021/04/10 06:34:17;;;;;;;3.15;1.40;;;19.90;34.20;;;;;;5073574;28;20116;-65
2021/04/10 06:36:42;;;;;;;4.68;1.73;;;19.90;34.20;;;;;;5073721;28;20107;-65
2021/04/10 06:39:08;;;;;;;3.95;1.38;;;19.90;34.20;;;;;;5073548;28;20032;-66
2021/04/10 06:41:34;;;;;;;3.65;1.50;;;19.90;34.20;;;;;;5072636;28;20024;-65
2021/04/10 06:44:01;;;;;;;3.08;1.17;;;19.90;34.20;;;;;;5073470;28;20024;-66
2021/04/10 06:46:31;;;;;;;4.13;1.45;;;19.90;34.20;;;;;;5073559;28;20036;-65
2021/04/10 06:48:58;;;;;;;2.95;1.10;;;19.90;34.20;;;;;;5073249;28;20384;-65
2021/04/10 06:51:23;;;;;;;3.80;1.40;;;19.90;34.20;;;;;;5073394;28;20107;-65
2021/04/10 06:53:50;;;;;;;3.88;1.50;;;19.90;34.30;;;;;;5073203;28;20441;-65
2021/04/10 06:56:23;;;;;;;5.05;1.30;;;19.90;34.20;;;;;;5073154;28;20511;-65
2021/04/10 06:59:07;;;;;;;4.50;1.50;;;19.90;34.20;;;;;;5073151;28;20085;-65
2021/04/10 07:01:34;;;;;;;4.07;1.83;;;19.90;34.20;;;;;;5073028;28;20021;-65
2021/04/10 07:04:00;;;;;;;3.97;1.65;;;19.90;34.30;;;;;;5073103;28;20021;-65
2021/04/10 07:06:26;;;;;;;2.20;1.27;;;19.90;34.30;;;;;;5073420;28;20020;-65
2021/04/10 07:08:52;;;;;;;3.55;1.50;;;19.90;34.30;;;;;;5073305;28;20091;-65
2021/04/10 07:11:18;;;;;;;3.20;1.08;;;19.90;34.20;;;;;;5073437;28;20028;-65
2021/04/10 07:13:44;;;;;;;4.32;1.55;;;20.00;34.20;;;;;;5073197;28;20025;-65
2021/04/10 07:16:10;;;;;;;3.85;1.67;;;19.90;34.30;;;;;;5073351;28;20369;-65
2021/04/10 07:18:36;;;;;;;3.58;1.38;;;19.90;34.30;;;;;;5072914;28;20025;-65
2021/04/10 07:21:11;;;;;;;3.55;1.20;;;19.90;34.30;;;;;;5072726;28;20106;-65
2021/04/10 07:23:51;;;;;;;3.28;1.40;;;20.00;34.30;;;;;;5072800;28;20338;-65
2021/04/10 07:26:20;;;;;;;2.60;1.30;;;19.90;34.30;;;;;;5072704;28;20519;-65
2021/04/10 07:28:46;;;;;;;4.97;1.58;;;20.00;34.30;;;;;;5072805;28;20034;-66
2021/04/10 07:31:16;;;;;;;3.45;1.38;;;19.90;34.30;;;;;;5072992;28;20012;-65
2021/04/10 07:33:57;;;;;;;3.80;1.25;;;20.00;34.30;;;;;;5073143;28;20031;-64
2021/04/10 07:36:23;;;;;;;3.78;1.48;;;20.00;34.30;;;;;;5072958;28;20487;-65
2021/04/10 07:38:57;;;;;;;5.97;1.55;;;19.90;34.30;;;;;;5072952;28;20031;-65
2021/04/10 07:41:23;;;;;;;3.25;1.48;;;20.00;34.30;;;;;;5072952;28;20029;-65
2021/04/10 07:43:49;;;;;;;5.35;1.35;;;20.00;34.30;;;;;;5072668;28;20085;-65
2021/04/10 07:46:21;;;;;;;3.85;1.48;;;20.00;34.20;;;;;;5072669;28;20024;-64
2021/04/10 07:49:06;;;;;;;6.93;1.50;;;19.90;34.30;;;;;;5072692;28;20032;-65
2021/04/10 07:51:53;;;;;;;4.65;1.65;;;20.00;34.30;;;;;;5072878;28;20033;-65
2021/04/10 07:54:30;;;;;;;3.72;1.42;;;20.00;34.30;;;;;;5076400;28;20519;-65
2021/04/10 07:57:01;;;;;;;4.68;1.63;;;20.00;34.30;;;;;;5076322;28;20032;-65
2021/04/10 07:59:28;;;;;;;3.63;1.40;;;20.00;34.20;;;;;;5076243;28;20024;-65
2021/04/10 08:02:07;;;;;;;3.85;1.33;;;20.00;34.30;;;;;;5076239;28;20112;-66
2021/04/10 08:04:32;;;;;;;3.83;1.17;;;20.00;34.30;;;;;;5076088;28;20029;-65
2021/04/10 08:07:02;;;;;;;2.75;1.10;;;20.00;34.30;;;;;;5076206;28;20086;-65
2021/04/10 08:09:35;;;;;;;4.05;1.50;;;20.00;34.30;;;;;;5076189;28;20042;-65
2021/04/10 08:12:06;;;;;;;5.47;1.70;;;20.00;34.20;;;;;;5076128;28;20021;-66
2021/04/10 08:14:45;;;;;;;4.18;1.48;;;20.00;34.30;;;;;;5075959;28;20036;-66
2021/04/10 08:17:30;;;;;;;3.97;1.27;;;20.00;34.30;;;;;;5076559;28;20021;-66
2021/04/10 08:19:56;;;;;;;5.35;1.42;;;20.00;34.30;;;;;;5075861;28;20021;-65
2021/04/10 08:22:21;;;;;;;5.25;1.30;;;20.00;34.30;;;;;;5075953;28;20132;-65
2021/04/10 08:24:47;;;;;;;2.88;1.33;;;20.00;34.40;;;;;;5075657;28;20028;-65
2021/04/10 08:27:14;;;;;;;2.25;1.13;;;20.00;34.40;;;;;;5075748;28;20032;-66
2021/04/10 08:29:43;;;;;;;3.42;1.13;;;20.00;34.40;;;;;;5075537;28;20392;-65
2021/04/10 08:32:09;;;;;;;2.72;1.20;;;20.00;34.40;;;;;;5075755;28;20021;-65
2021/04/10 08:34:36;;;;;;;3.78;1.27;;;20.00;34.40;;;;;;5075514;28;20117;-66
2021/04/10 08:37:08;;;;;;;5.22;1.63;;;20.00;34.40;;;;;;5075366;28;20020;-65
2021/04/10 08:39:42;;;;;;;5.05;1.55;;;20.00;34.40;;;;;;5075821;28;20025;-65
2021/04/10 08:42:11;;;;;;;3.65;1.38;;;20.00;34.40;;;;;;5076025;28;20024;-66
2021/04/10 08:44:38;;;;;;;4.32;1.20;;;20.00;34.40;;;;;;5075567;28;20029;-65
2021/04/10 08:47:04;;;;;;;3.97;1.50;;;20.00;34.30;;;;;;5075322;28;20029;-65
2021/04/10 08:49:35;;;;;;;5.57;1.17;;;20.00;34.40;;;;;;5075006;28;20025;-65
2021/04/10 08:52:12;;;;;;;3.13;1.10;;;20.00;34.30;;;;;;5075124;28;20082;-65
2021/04/10 08:54:41;;;;;;;5.03;1.30;;;20.00;34.30;;;;;;5075009;28;20040;-65
2021/04/10 08:57:12;;;;;;;5.60;1.58;;;20.00;34.30;;;;;;5075422;28;20376;-65
2021/04/10 08:59:41;;;;;;;3.95;1.48;;;20.00;34.30;;;;;;5075117;28;20025;-65
2021/04/10 09:02:09;;;;;;;3.45;1.17;;;20.00;34.30;;;;;;5075100;28;20050;-65
2021/04/10 09:04:58;;;;;;;3.05;1.20;;;20.00;34.40;;;;;;5074287;28;20043;-65
2021/04/10 09:07:49;;;;;;;4.30;1.63;;;20.00;34.30;;;;;;5075041;28;20020;-65
2021/04/10 09:10:23;;;;;;;4.07;1.50;;;20.00;34.30;;;;;;5074865;28;20025;-65
2021/04/10 09:12:49;;;;;;;3.25;1.20;;;20.00;34.40;;;;;;5074683;28;20408;-65
2021/04/10 09:15:15;;;;;;;4.97;1.58;;;20.00;34.40;;;;;;5074656;28;20037;-65
2021/04/10 09:18:00;;;;;;;3.55;1.33;;;20.00;34.40;;;;;;5074286;28;20107;-64
2021/04/10 09:20:44;;;;;;;4.93;1.67;;;20.00;34.40;;;;;;5074746;28;20033;-65
2021/04/10 09:23:22;;;;;;;3.97;1.58;;;20.00;34.30;;;;;;5074458;28;20032;-65
2021/04/10 09:26:07;;;;;;;2.97;1.00;;;20.00;34.40;;;;;;5074633;28;20029;-65
2021/04/10 09:28:34;;;;;;;4.18;1.30;;;20.00;34.40;;;;;;5074577;28;20020;-65
2021/04/10 09:31:01;;;;;;;4.85;1.63;;;20.00;34.40;;;;;;5074243;28;20051;-64
2021/04/10 09:33:33;;;;;;;3.40;1.35;;;20.00;34.40;;;;;;5074384;28;20017;-65
2021/04/10 09:36:00;;;;;;;2.60;1.10;;;20.00;34.50;;;;;;5073427;28;20451;-65
2021/04/10 09:38:40;;;;;;;2.97;1.30;;;20.00;34.50;;;;;;5074149;28;20028;-66
2021/04/10 09:41:06;;;;;;;2.95;1.27;;;20.00;34.40;;;;;;5073902;28;20032;-65
2021/04/10 09:43:32;;;;;;;3.95;1.30;;;20.00;34.40;;;;;;5073726;28;20024;-67
2021/04/10 09:45:58;;;;;;;3.75;1.48;;;20.00;34.40;;;;;;5073607;28;20056;-66
2021/04/10 09:48:26;;;;;;;2.63;1.40;;;20.00;34.40;;;;;;5073746;28;20032;-66
2021/04/10 09:50:52;;;;;;;4.68;1.50;;;20.00;34.40;;;;;;5073968;28;20032;-64
2021/04/10 09:53:25;;;;;;;5.90;2.00;;;20.00;34.50;;;;;;5073918;28;20039;-64
2021/04/10 09:56:01;;;;;;;4.15;1.50;;;20.00;34.40;;;;;;5073540;28;20044;-64
2021/04/10 09:58:37;;;;;;;3.80;1.30;;;20.00;34.40;;;;;;5073884;28;20035;-67
2021/04/10 10:01:31;;;;;;;3.85;1.73;;;20.00;34.50;;;;;;5072296;28;20488;-65
2021/04/10 10:03:56;;;;;;;4.97;1.45;;;20.00;34.50;;;;;;5073640;28;20479;-65
2021/04/10 10:06:32;;;;;;;3.67;1.50;;;20.00;34.40;;;;;;5073542;28;20029;-65
2021/04/10 10:08:58;;;;;;;4.90;1.40;;;20.00;34.40;;;;;;5073575;28;20032;-66
2021/04/10 10:11:24;;;;;;;3.28;1.40;;;20.00;34.40;;;;;;5073527;28;20021;-66
2021/04/10 10:13:50;;;;;;;4.18;1.35;;;20.00;34.50;;;;;;5073423;28;20024;-66
2021/04/10 10:16:25;;;;;;;4.03;1.60;;;20.00;34.40;;;;;;5073961;28;20040;-65
2021/04/10 10:18:50;;;;;;;;;;;20.00;34.40;;;;;;5074663;28;20016;-65
2021/04/10 10:21:18;;;;;;;4.10;1.30;;;20.00;34.50;;;;;;5073749;28;19912;-66
2021/04/10 10:23:51;;;;;;;5.03;1.45;;;20.00;34.50;;;;;;5073859;28;20109;-66
2021/04/10 10:26:27;;;;;;;5.72;1.48;;;20.00;34.50;;;;;;5073688;28;20452;-67
2021/04/10 10:28:59;;;;;;;4.78;1.80;;;20.00;34.50;;;;;;5073610;28;20031;-66
2021/04/10 10:31:28;;;;;;;3.50;1.50;;;20.00;34.50;;;;;;5073893;28;20484;-66
2021/04/10 10:33:54;;;;;;;5.30;1.83;;;20.00;34.50;;;;;;5077104;28;20036;-65
2021/04/10 10:36:21;;;;;;;4.18;1.67;;;20.00;34.50;;;;;;5073562;28;20093;-65
2021/04/10 10:38:50;;;;;;;4.70;1.38;;;20.00;34.60;;;;;;5073380;28;20024;-65
2021/04/10 10:41:17;;;;;;;3.58;1.55;;;20.00;34.50;;;;;;5073142;28;20020;-64
2021/04/10 10:43:44;;;;;;;3.92;1.40;;;20.00;34.50;;;;;;5073305;28;20058;-66
2021/04/10 10:46:20;;;;;;;4.75;1.50;;;20.00;34.60;;;;;;5073640;28;20033;-66
2021/04/10 10:48:47;;;;;;;4.18;1.42;;;20.00;34.50;;;;;;5079448;28;20031;-65
2021/04/10 10:51:15;;;;;;;4.93;1.50;;;20.00;34.50;;;;;;5075323;28;20021;-66
2021/04/10 10:53:45;;;;;;;5.20;1.63;;;20.00;34.50;;;;;;5082648;28;20021;-65
2021/04/10 10:56:11;;;;;;;4.10;1.40;;;20.00;34.50;;;;;;5073384;28;20114;-66
2021/04/10 10:58:53;;;;;;;3.40;1.38;;;20.00;34.50;;;;;;5073108;28;20044;-65
2021/04/10 11:01:27;;;;;;;4.97;1.58;;;20.00;34.60;;;;;;5073020;28;20024;-66
2021/04/10 11:04:04;;;;;;;6.50;1.55;;;20.00;34.60;;;;;;5073204;28;20035;-65
2021/04/10 11:06:33;;;;;;;5.60;1.98;;;20.00;34.60;;;;;;5073416;28;20103;-65
2021/04/10 11:09:01;;;;;;;6.30;2.22;;;20.00;34.50;;;;;;5073416;28;20032;-65
2021/04/10 11:11:35;;;;;;;4.82;1.73;;;20.00;34.60;;;;;;5073163;28;20048;-66
2021/04/10 11:14:01;;;;;;;3.92;1.30;;;20.00;34.60;;;;;;5073238;28;20029;-65
2021/04/10 11:16:26;;;;;;;4.13;1.50;;;20.00;34.60;;;;;;5073050;28;20033;-65
2021/04/10 11:18:57;;;;;;;4.95;1.90;;;20.00;34.60;;;;;;5072852;28;20031;-65
2021/04/10 11:21:30;;;;;;;4.35;1.98;;;20.00;34.70;;;;;;5072617;28;20056;-64
2021/04/10 11:24:01;;;;;;;5.55;1.77;;;20.00;34.70;;;;;;5073192;28;20055;-64
2021/04/10 11:26:31;;;;;;;5.50;1.63;;;20.00;34.70;;;;;;5073331;28;20124;-64
2021/04/10 11:29:12;;;;;;;4.00;1.40;;;20.00;34.80;;;;;;5077670;28;20103;-64
2021/04/10 11:31:38;;;;;;;6.13;2.00;;;20.00;34.70;;;;;;5077000;28;20036;-66
2021/04/10 11:34:35;;;;;;;4.00;1.83;;;20.00;34.70;;;;;;5076880;28;20033;-65
2021/04/10 11:37:03;;;;;;;3.90;1.25;;;20.00;34.80;;;;;;5076667;28;20051;-66
2021/04/10 11:39:30;;;;;;;6.10;1.58;;;20.00;34.80;;;;;;5076497;28;20094;-66
2021/04/10 11:41:56;;;;;;;5.63;2.13;;;20.00;34.80;;;;;;5076552;28;20070;-66
2021/04/10 11:44:23;;;;;;;4.75;1.83;;;20.00;34.70;;;;;;5076931;28;20035;-66
2021/04/10 11:47:00;;;;;;;5.82;1.60;;;20.00;34.80;;;;;;5076578;28;20486;-66
2021/04/10 11:49:28;;;;;;;4.07;1.52;;;19.90;34.90;;;;;;5076759;28;20107;-66
2021/04/10 11:51:54;;;;;;;4.75;1.70;;;20.00;34.80;;;;;;5076717;28;20021;-65
2021/04/10 11:54:31;;;;;;;5.32;1.75;;;20.00;34.80;;;;;;5076439;28;20039;-65
2021/04/10 11:56:56;;;;;;;5.20;1.63;;;20.00;34.80;;;;;;5076408;28;20024;-66
2021/04/10 11:59:36;;;;;;;5.43;1.90;;;20.00;34.90;;;;;;5076683;28;20078;-65
2021/04/10 12:02:03;;;;;;;5.50;1.88;;;20.00;34.80;;;;;;5075185;28;20358;-66
2021/04/10 12:04:40;;;;;;;5.15;1.60;;;20.00;34.90;;;;;;5076000;28;20099;-65
2021/04/10 12:07:07;;;;;;;3.30;1.35;;;20.00;34.90;;;;;;5076190;28;20455;-66
2021/04/10 12:09:43;;;;;;;4.90;1.95;;;20.00;34.90;;;;;;5075872;28;20401;-66
2021/04/10 12:12:12;;;;;;;3.88;1.77;;;20.00;34.90;;;;;;5075979;28;20020;-66
2021/04/10 12:14:41;;;;;;;2.60;1.17;;;20.00;34.90;;;;;;5076455;28;20032;-66
2021/04/10 12:17:07;;;;;;;4.15;1.45;;;20.00;34.90;;;;;;5075948;28;20028;-65
2021/04/10 12:19:33;;;;;;;5.25;1.52;;;20.00;34.90;;;;;;5074795;28;20028;-66
2021/04/10 12:22:00;;;;;;;3.80;1.20;;;20.00;34.90;;;;;;5075569;28;20131;-65
2021/04/10 12:24:25;;;;;;;4.35;1.70;;;20.00;34.90;;;;;;5075803;28;20167;-66
2021/04/10 12:26:51;;;;;;;3.30;1.10;;;20.00;34.90;;;;;;5075984;28;20523;-66
2021/04/10 12:29:17;;;;;;;4.32;1.50;;;20.00;34.90;;;;;;5075794;28;20021;-66
2021/04/10 12:31:43;;;;;;;7.18;1.63;;;20.00;35.00;;;;;;5075953;28;20021;-65
2021/04/10 12:34:09;;;;;;;5.25;1.67;;;20.00;35.00;;;;;;5076095;28;20066;-66
2021/04/10 12:36:34;;;;;;;5.53;1.80;;;20.00;35.00;;;;;;5076151;28;20040;-66
2021/04/10 12:39:01;;;;;;;4.55;1.75;;;20.00;35.00;;;;;;5074263;28;20012;-65
2021/04/10 12:41:27;;;;;;;4.68;1.50;;;20.00;35.00;;;;;;5075850;28;20384;-66
2021/04/10 12:43:53;;;;;;;4.78;1.40;;;20.00;35.00;;;;;;5075642;28;20028;-66
2021/04/10 12:46:19;;;;;;;4.07;1.67;;;20.00;35.10;;;;;;5075420;28;20511;-66
2021/04/10 12:48:46;;;;;;;4.53;1.40;;;20.00;35.00;;;;;;5075673;28;20032;-66
2021/04/10 12:51:11;;;;;;;3.38;1.50;;;20.00;35.10;;;;;;5075109;28;20020;-65
2021/04/10 12:53:37;;;;;;;5.25;1.90;;;20.00;35.10;;;;;;5075183;28;20365;-66
2021/04/10 12:56:03;;;;;;;3.35;1.27;;;20.00;35.00;;;;;;5075071;28;20047;-65